Tiempo atmosférico en la estación meteorológica de Águilas, Murcia (26 m.)



Fecha
DESCASC
Temp. máxima en grados centígrados (hora)
DESCASC
Temp. mínima en grados centígrados (hora)
DESCASC
Temp. media en grados centígrados
DESCASC
Racha de viento máxima en m/sg (hora)
DESCASC
Velocidad máxima media en intervalos de 10 minutos(hora)
DESCASC
Precipitaciones diarias en mm
DESCASC
Precipitaciones de 00:00 a 06:00 en mm
DESCASC
Precipitaciones de 06:00 a 12:00 en mm
DESCASC
Precipitaciones de 12:00 a 18:00 en mm
DESCASC
Precipitaciones de 18:00 a 24:00 en mm
DESCASC
21-02-2019 17.5 (12:10) 7.6 (07:30) 12.5 7.78 (12:40) 5.56 (13:10) 0 0 0 0 0
20-02-2019 17.4 (12:10) 8.2 (03:40) 12.8 7.22 (13:20) 4.44 (12:30) 0 0 0 0 0
19-02-2019 17.2 (12:30) 7.4 (06:50) 12.3 8.89 (13:00) 5.28 (14:40) 0 0 0 0 0
18-02-2019 19 (14:10) 8 (07:50) 13.5 10.56 (15:10) 6.39 (14:50) 0 0 0 0 0
17-02-2019 18.6 (14:30) 8.3 (00:00) 13.5 9.44 (14:40) 5.56 (14:40) 0 0 0 0 0
16-02-2019 18.4 (14:40) 7.9 (00:00) 13.1 12.22 (13:10) 7.22 (16:10) 0 0 0 0 0
15-02-2019 17.3 (14:50) 6.8 (00:00) 12 11.39 (15:30) 7.5 (15:30) 0 0 0 0 0
14-02-2019 17.9 (14:00) 8.5 (00:00) 13.2 11.11 (15:50) 6.39 (15:00) 0 0 0 0 0
13-02-2019 16.5 (13:30) 6.8 (00:00) 11.7 9.72 (15:10) 6.11 (13:50) 0 0 0 0 0
12-02-2019 17.3 (12:10) 11.4 (00:00) 14.3 8.89 (12:30) 5.56 (12:20) 0 0 0 0 0
11-02-2019 18.5 (13:40) 10.6 (00:00) 14.6 10 (21:40) 5.83 (21:00) 0 0 0 0 0
10-02-2019 19.5 (16:20) 7.4 (00:00) 13.5 5.83 (14:50) 3.61 (23:00) 0 0 0 0 0
09-02-2019 17.5 (16:00) 8 (00:00) 12.8 4.17 (14:40) 2.5 (13:30) 0 0 0 0 0
08-02-2019 16.6 (14:00) 8.8 (00:00) 12.7 5.28 (15:40) 2.5 (13:00) 0 0 0 0 0
07-02-2019 19 (13:20) 8.7 (00:00) 13.8 3.89 (13:50) 2.5 (13:50) 0 0 0 0 0
06-02-2019 19.1 (13:50) 8.3 (00:00) 13.7 4.44 (13:00) 2.5 (13:00) 0 0 0 0 0
05-02-2019 18 (16:10) 6.2 (00:00) 12.1 5 (14:50) 2.5 (12:50) 0 0 0 0 0
04-02-2019 16.2 (15:30) 4.9 (00:00) 10.6 6.67 (16:30) 3.33 (01:10) 0 0 0 0 0
03-02-2019 16.2 (15:40) 5.8 (00:00) 11 14.72 (11:20) 6.67 (14:40) 0 0 0 0 0
02-02-2019 17 (15:30) 9 (00:00) 13 20.28 (13:20) 11.11 (04:00) 0 0 0 0 0
01-02-2019 20.9 (14:20) 11.5 (00:00) 16.2 23.61 (13:40) 13.33 (13:30) 0 0 0 0 0
31-01-2019 23.2 (15:50) 14.5 (00:00) 18.9 16.94 (18:40) 9.72 (16:10) 0.4 0.2 0 0.2 0
30-01-2019 20.4 (13:20) 14.2 (00:00) 17.3 14.17 (08:10) 8.61 (08:10) 0 0 0 0 0
29-01-2019 21.3 (14:40) 11.2 (00:00) 16.2 20.28 (16:00) 11.11 (17:50) 0 0 0 0 0
28-01-2019 21.1 (13:20) 9.2 (00:00) 15.2 12.78 (17:10) 7.5 (18:00) 0 0 0 0 0
27-01-2019 24.2 (13:30) 7.5 (00:00) 15.9 12.5 (14:10) 7.5 (13:50) 0 0 0 0 0
26-01-2019 19.2 (15:00) 9.4 (00:00) 14.3 5 (01:10) 2.78 (01:00) 0 0 0 0 0
25-01-2019 23.5 (15:10) 10.7 (00:00) 17.1 10 (12:40) 5 (12:40) 0 0 0 0 0
24-01-2019 21 (13:50) 13.3 (00:00) 17.2 15.56 (03:00) 8.61 (03:10) 0 0 0 0 0

Gráficas

Temp. máximas Temp. mínimas Temp. medias Precipitaciones Rachas de viento máximas Velocidades máximas media en intervalos de 10 minutos

Datos horarios

Fecha y hora oficial Temperatura (ºC) Velocidad del viento (km/h) Dirección del viento Racha (km/h) Dirección de racha Precipitación (mm) Presión (hPa) Tendencia (hPa) Humedad (%)
2019-02-22 23:00:00 -- -- -- -- -- -- -- -- --
2019-02-22 22:00:00 -- -- -- -- -- -- -- -- --
2019-02-22 21:00:00 -- -- -- -- -- -- -- -- --
2019-02-22 20:00:00 -- -- -- -- -- -- -- -- --
2019-02-22 19:00:00 -- -- -- -- -- -- -- -- --
2019-02-22 18:00:00 -- -- -- -- -- -- -- -- --
2019-02-22 17:00:00 -- -- -- -- -- -- -- -- --
2019-02-22 16:00:00 -- -- -- -- -- -- -- -- --
2019-02-22 15:00:00 -- -- -- -- -- -- -- -- --
2019-02-22 14:00:00 -- -- -- -- -- -- -- -- --
2019-02-22 13:00:00 -- -- -- -- -- -- -- -- --
2019-02-22 12:00:00 -- -- -- -- -- -- -- -- --
2019-02-22 11:00:00 -- -- -- -- -- -- -- -- --
2019-02-22 10:00:00 -- -- -- -- -- -- -- -- --
2019-02-22 09:00:00 -- -- -- -- -- -- -- -- --
2019-02-22 08:00:00 7.7 0 Calma 10 Nordeste 0 1028.1 0.3 72
2019-02-22 07:00:00 8.8 5 Nordeste 11 Nordeste 0 1028.2 0.1 71
2019-02-22 06:00:00 7.8 5 Nordeste 11 Nordeste 0 1028 -0.4 73
2019-02-22 05:00:00 7.6 0 Calma 10 Nordeste 0 1027.8 -0.6 71
2019-02-22 04:00:00 8.5 5 Norte 10 Norte 0 1028.1 -0.5 71
2019-02-22 03:00:00 9 6 Nordeste 10 Nordeste 0 1028.4 -0.2 72
2019-02-22 02:00:00 9 4 Nordeste 8 Norte 0 1028.4 -0.4 74
2019-02-22 01:00:00 8.6 6 Norte 8 Norte 0 1028.6 0.2 75
2019-02-22 00:00:00 9.6 2 Norte 10 Norte 0 1028.6 1 73
2019-02-21 23:00:00 9.8 3 Norte 10 Nordeste 0 1028.8 1.7 72
2019-02-21 22:00:00 10.7 4 Norte 8 Nordeste 0 1028.4 2 70
2019-02-21 21:00:00 12.2 3 Nordeste 8 Nordeste 0 1027.6 1.5 66
2019-02-21 20:00:00 13.1 4 Nordeste 10 Este 0 1027.1 1.1 63
2019-02-21 19:00:00 13.5 7 Este 16 Sudeste 0 1026.4 0.5 62
2019-02-21 18:00:00 14.7 10 Sudeste 17 Sudeste 0 1026.1 0.2 56
2019-02-21 17:00:00 15.5 10 Sudeste 20 Sudeste 0 1026 0 52
2019-02-21 16:00:00 15.8 11 Sudeste 20 Sudeste 0 1025.9 -0.4 47
2019-02-21 15:00:00 16.3 12 Sur 24 Sudeste 0 1025.9 -0.6 50
2019-02-21 14:00:00 16.3 14 Sudeste 28 Sudeste 0 1026 -0.2 51
2019-02-21 13:00:00 16.1 18 Sudeste 28 Sudeste 0 1026.3 0.2 46
2019-02-21 12:00:00 16.7 15 Sudeste 26 Este 0 1026.5 0.8 47
2019-02-21 11:00:00 16.3 12 Sudeste 23 Este 0 1026.2 1.4 49
2019-02-21 10:00:00 14.7 11 Este 16 Este 0 1026.1 1.8 53
2019-02-21 09:00:00 10.3 5 Norte 8 Norte 0 1025.7 1.7 69
2019-02-21 08:00:00 8 3 Norte 6 Nordeste 0 1024.8 1.1 74
2019-02-21 07:00:00 7.8 2 Norte 6 Norte 0 1024.3 0.6 76
2019-02-21 06:00:00 8.5 0 Calma 9 Norte 0 1024 0.1 73
2019-02-21 05:00:00 8.4 2 Norte 7 Norte 0 1023.7 -0.2 75
2019-02-21 04:00:00 9.5 2 Este 8 Norte 0 1023.7 -0.1 74
2019-02-21 03:00:00 10.8 2 Sudeste 9 Norte 0 1023.9 0.1 71
2019-02-21 02:00:00 11.8 5 Nordeste 10 Este 0 1023.9 0.1 73
2019-02-21 01:00:00 12.9 6 Este 9 Este 0 1023.8 0.3 71
2019-02-21 00:00:00 12.3 5 Norte 9 Norte 0 1023.8 0.9 71
2019-02-20 23:00:00 13.1 3 Nordeste 6 Nordeste 0 1023.8 1.3 68
2019-02-20 22:00:00 13.3 3 Este 9 Sudeste 0 1023.5 1.7 68
2019-02-20 21:00:00 13.8 6 Sudeste 12 Sudeste 0 1022.9 1.8 67
2019-02-20 20:00:00 14 10 Sudeste 14 Sudeste 0 1022.5 1.6 65
2019-02-20 19:00:00 13.9 8 Sudeste 16 Sudeste 0 1021.8 0.9 68
2019-02-20 18:00:00 14.4 9 Sudeste 21 Sudeste 0 1021.1 0 64
2019-02-20 17:00:00 15.4 14 Sudeste 21 Sudeste 0 1020.9 -0.4 58
2019-02-20 16:00:00 16 12 Sudeste 23 Sudeste 0 1020.9 -0.9 56
2019-02-20 15:00:00 16 13 Sudeste 23 Sudeste 0 1021.1 -0.8 54
2019-02-20 14:00:00 16.8 14 Sudeste 26 Sudeste 0 1021.3 -0.3 49
2019-02-20 13:00:00 16.4 14 Sudeste 25 Sudeste 0 1021.8 0.5 44
2019-02-20 12:00:00 17 13 Sudeste 26 Este 0 1021.9 1 45
2019-02-20 11:00:00 16.5 9 Sudeste 17 Sudeste 0 1021.6 1.6 48
2019-02-20 10:00:00 14.5 10 Nordeste 17 Nordeste 0 1021.3 1.9 57
2019-02-20 09:00:00 11.2 5 Noroeste 8 Noroeste 0 1020.9 1.9 68
2019-02-20 08:00:00 9.8 5 Norte 12 Norte 0 1020 1.1 71
2019-02-20 07:00:00 8.6 7 Norte 11 Norte 0 1019.4 0.5 74
2019-02-20 06:00:00 8.5 3 Nordeste 12 Nordeste 0 1019 -0.1 74
2019-02-20 05:00:00 8.5 4 Norte 10 Norte 0 1018.9 -0.2 74
2019-02-20 04:00:00 8.9 5 Norte 9 Norte 0 1018.9 -0.2 74
2019-02-20 03:00:00 9.1 3 Nordeste 9 Norte 0 1019.1 0 73
2019-02-20 02:00:00 8.9 0 Calma 12 Nordeste 0 1019.1 0 70
2019-02-20 01:00:00 9.6 6 Nordeste 9 Norte 0 1019.1 0.6 70
2019-02-20 00:00:00 9.2 0 Calma 9 Nordeste 0 1019.1 1.1 71
2019-02-19 23:00:00 10.6 6 Nordeste 9 Nordeste 0 1019.1 1.6 69
2019-02-19 22:00:00 11.4 5 Nordeste 9 Nordeste 0 1018.5 1.9 68
2019-02-19 21:00:00 12.4 5 Nordeste 17 Nordeste 0 1018 2 65
2019-02-19 20:00:00 13.4 6 Nordeste 16 Este 0 1017.5 1.6 63
2019-02-19 19:00:00 13.9 13 Este 24 Este 0 1016.6 0.4 63
2019-02-19 18:00:00 15 14 Este 28 Este 0 1016 -0.2 58
2019-02-19 17:00:00 15.9 17 Sudeste 28 Sudeste 0 1015.9 -0.9 54
2019-02-19 16:00:00 15.5 18 Sudeste 28 Sudeste 0 1016.2 -1.2 58
2019-02-19 15:00:00 16 16 Sudeste 30 Sudeste 0 1016.2 -1.5 54
2019-02-19 14:00:00 16.1 16 Sudeste 27 Sudeste 0 1016.8 -0.9 51
2019-02-19 13:00:00 16.3 18 Sudeste 32 Sudeste 0 1017.4 -0.2 46
2019-02-19 12:00:00 16.9 18 Sudeste 29 Este 0 1017.7 0.5 43
2019-02-19 11:00:00 16.6 4 Sudoeste 10 Sur 0 1017.7 1.3 45
2019-02-19 10:00:00 15 4 Oeste 12 Oeste 0 1017.6 1.4 48
2019-02-19 09:00:00 11.1 3 Noroeste 12 Norte 0 1017.2 1.2 64
2019-02-19 08:00:00 7.7 4 Norte 8 Noroeste 0 1016.4 0.6 74
2019-02-19 07:00:00 7.8 4 Norte 8 Norte 0 1016.2 0.3 74
2019-02-19 06:00:00 7.9 2 Norte 10 Nordeste 0 1016 -0.2 73
2019-02-19 05:00:00 8.2 5 Norte 9 Norte 0 1015.8 -0.4 73
2019-02-19 04:00:00 8.4 2 Nordeste 8 Norte 0 1015.9 -0.2 70
2019-02-19 03:00:00 8.4 3 Norte 9 Noroeste 0 1016.2 -0.2 69
2019-02-19 02:00:00 8.9 2 Noroeste 6 Oeste 0 1016.2 -0.4 69
2019-02-19 01:00:00 9.2 0 Calma 6 Este 0 1016.1 -0.4 66
2019-02-19 00:00:00 9.6 0 Calma 6 Norte 0 1016.4 0.3 65
2019-02-18 23:00:00 10.7 2 Nordeste 8 Nordeste 0 1016.6 1 63
2019-02-18 22:00:00 11.8 0 Calma 9 Nordeste 0 1016.5 1.6 60
2019-02-18 21:00:00 12.5 0 Calma 15 Este 0 1016.1 1.6 62
2019-02-18 20:00:00 13.6 9 Este 18 Nordeste 0 1015.6 0.9 61
2019-02-18 19:00:00 14.7 13 Este 29 Este 0 1014.9 0.3 60
2019-02-18 18:00:00 15.6 19 Este 31 Este 0 1014.5 -0.5 59
2019-02-18 17:00:00 17.2 18 Sudeste 38 Sudeste 0 1014.7 -1 50
2019-02-18 16:00:00 17.6 19 Sudeste 38 Este 0 1014.6 -1.8 54
2019-02-18 15:00:00 18.7 22 Este 37 Este 0 1015 -2.3 46
2019-02-18 14:00:00 18.5 21 Sudeste 36 Este 0 1015.7 -1.7 48
2019-02-18 13:00:00 17.4 15 Este 34 Este 0 1016.4 -0.9 49
2019-02-18 12:00:00 16.6 18 Este 34 Este 0 1017.3 -0.1 52
2019-02-18 11:00:00 16.2 13 Este 29 Nordeste 0 1017.4 0.6 53
2019-02-18 10:00:00 14.8 13 Nordeste 24 Nordeste 0 1017.3 0.4 57
2019-02-18 09:00:00 10.4 2 Nordeste 10 Nordeste 0 1017.4 0.6 70
2019-02-18 08:00:00 8.1 3 Noroeste 8 Norte 0 1016.8 -0.2 73
2019-02-18 07:00:00 8.8 4 Norte 7 Noroeste 0 1016.9 -0.4 71
2019-02-18 06:00:00 9 5 Noroeste 8 Noroeste 0 1016.8 -1.3 69
2019-02-18 05:00:00 8.9 4 Norte 8 Norte 0 1017 -1.4 69
2019-02-18 04:00:00 9.7 3 Norte 9 Norte 0 1017.3 -1.5 65
2019-02-18 03:00:00 9.7 5 Norte 11 Nordeste 0 1018.1 -1.1 67
2019-02-18 02:00:00 8.6 0 Calma 8 Norte 0 1018.4 -1 66
2019-02-18 01:00:00 8.5 3 Norte 8 Norte 0 1018.8 -0.7 71
2019-02-18 00:00:00 9.2 6 Norte 9 Norte 0 1019.2 -0.2 70
2019-02-17 23:00:00 9.4 0 Calma 9 Noroeste 0 1019.4 0.2 74
2019-02-17 22:00:00 11.1 5 Nordeste 15 Este 0 1019.5 0.9 69
2019-02-17 21:00:00 12.3 9 Este 18 Este 0 1019.4 1 67
2019-02-17 20:00:00 13.4 12 Este 22 Este 0 1019.2 0.5 65
2019-02-17 19:00:00 14.1 13 Este 29 Este 0 1018.6 -0.5 68
2019-02-17 18:00:00 15.8 18 Este 30 Este 0 1018.4 -1.3 58
2019-02-17 17:00:00 17 16 Sudeste 31 Sudeste 0 1018.7 -1.9 53
2019-02-17 16:00:00 17.1 20 Sudeste 33 Sudeste 0 1019.1 -2.4 53
2019-02-17 15:00:00 17.9 20 Sudeste 34 Sudeste 0 1019.7 -2.3 47
2019-02-17 14:00:00 18.1 14 Este 32 Este 0 1020.6 -1.5 43
2019-02-17 13:00:00 16.6 15 Este 30 Este 0 1021.5 -0.7 49
2019-02-17 12:00:00 15.5 12 Este 21 Este 0 1022 -0.2 53
2019-02-17 11:00:00 14.7 11 Nordeste 21 Nordeste 0 1022.1 0.2 55
2019-02-17 10:00:00 13.6 10 Nordeste 22 Nordeste 0 1022.2 0.7 59
2019-02-17 09:00:00 10.9 5 Norte 10 Norte 0 1022.2 0.8 71
2019-02-17 08:00:00 8.9 4 Norte 8 Norte 0 1021.9 0.4 74
2019-02-17 07:00:00 9.2 3 Norte 8 Norte 0 1021.5 -0.1 72
2019-02-17 06:00:00 9.6 3 Este 10 Nordeste 0 1021.4 -0.9 71
2019-02-17 05:00:00 8.4 4 Noroeste 7 Noroeste 0 1021.5 -1.1 74
2019-02-17 04:00:00 8.9 2 Nordeste 10 Nordeste 0 1021.6 -1.4 71
2019-02-17 03:00:00 8.8 5 Norte 8 Nordeste 0 1022.3 -1 73
2019-02-17 02:00:00 8.8 3 Norte 9 Nordeste 0 1022.6 -1.1 71
2019-02-17 01:00:00 9.2 2 Nordeste 8 Oeste 0 1023 -0.5 70
2019-02-17 00:00:00 10.2 5 Norte 10 Norte 0 1023.3 0.2 67
2019-02-16 23:00:00 10.8 3 Oeste 14 Este 0 1023.7 1.1 64
2019-02-16 22:00:00 12 8 Nordeste 21 Este 0 1023.5 1.3 65
2019-02-16 21:00:00 12.1 8 Este 24 Este 0 1023.1 1.2 63
2019-02-16 20:00:00 12.6 10 Este 27 Este 0 1022.6 0.9 61
2019-02-16 19:00:00 13.5 18 Este 38 Este 0 1022.2 0 60
2019-02-16 18:00:00 15.6 19 Este 39 Este 0 1021.9 -0.8 53
2019-02-16 17:00:00 16.5 25 Este 40 Este 0 1021.7 -1.7 49
2019-02-16 16:00:00 17.8 23 Este 40 Este 0 1022.2 -2.1 45
2019-02-16 15:00:00 18 23 Este 41 Este 0 1022.7 -2.2 44
2019-02-16 14:00:00 17.6 22 Este 44 Nordeste 0 1023.4 -1.3 46
2019-02-16 13:00:00 17.2 13 Este 36 Este 0 1024.3 -0.2 45
2019-02-16 12:00:00 16.5 20 Este 38 Este 0 1024.9 0.9 46
2019-02-16 11:00:00 15.8 19 Este 35 Este 0 1024.7 1 48
2019-02-16 10:00:00 14.9 16 Este 31 Este 0 1024.5 1.6 50
2019-02-16 09:00:00 10.7 3 Sur 13 Sudeste 0 1024 1.3 67
2019-02-16 08:00:00 7.9 4 Noroeste 8 Noroeste 0 1023.7 1.2 75
2019-02-16 07:00:00 8.3 3 Oeste 8 Noroeste 0 1022.9 -0.1 74
2019-02-16 06:00:00 8.6 4 Sur 10 Oeste 0 1022.7 -0.6 74
2019-02-16 05:00:00 8.4 2 Sudoeste 8 Sudoeste 0 1022.5 -0.9 75
2019-02-16 04:00:00 8.8 0 Calma 8 Sur 0 1023 -0.6 73
2019-02-16 03:00:00 9.4 0 Calma 6 Este 0 1023.3 -0.4 71
2019-02-16 02:00:00 9.7 3 Noroeste 8 Norte 0 1023.4 -0.6 70
2019-02-16 01:00:00 10 3 Oeste 10 Oeste 0 1023.6 -0.3 70
2019-02-16 00:00:00 10.5 4 Noroeste 12 Oeste 0 1023.7 0 69
2019-02-15 23:00:00 9.6 4 Oeste 8 Norte 0 1024 0.5 71
2019-02-15 22:00:00 10.7 5 Norte 7 Noroeste 0 1023.9 1 69
2019-02-15 21:00:00 11.9 4 Noroeste 26 Este 0 1023.7 1.1 66
2019-02-15 20:00:00 13.2 12 Este 32 Este 0 1023.5 0.6 62
2019-02-15 19:00:00 13.9 22 Este 34 Este 0 1022.9 -0.2 61
2019-02-15 18:00:00 15.2 19 Este 35 Este 0 1022.6 -0.7 60
2019-02-15 17:00:00 16.3 17 Sudeste 35 Sudeste 0 1022.9 -1.3 55
2019-02-15 16:00:00 16.5 21 Sudeste 41 Sudeste 0 1023.1 -2.3 55
2019-02-15 15:00:00 17 22 Sudeste 40 Sudeste 0 1023.3 -3.1 51
2019-02-15 14:00:00 16.8 23 Sudeste 40 Este 0 1024.2 -2.3 49
2019-02-15 13:00:00 16.5 20 Sudeste 35 Sudeste 0 1025.4 -0.9 48
2019-02-15 12:00:00 16.9 15 Sudeste 24 Sudeste 0 1026.4 0.2 46
2019-02-15 11:00:00 15.8 6 Sur 10 Sudoeste 0 1026.5 0.7 48
2019-02-15 10:00:00 14.6 3 Sudoeste 6 Sudoeste 0 1026.3 0.8 52
2019-02-15 09:00:00 9.6 2 Norte 5 Norte 0 1026.2 0.7 71
2019-02-15 08:00:00 6.9 0 Calma 5 Nordeste 0 1025.8 0.4 78
2019-02-15 07:00:00 7.3 2 Norte 6 Nordeste 0 1025.5 -0.4 75
2019-02-15 06:00:00 7.9 3 Nordeste 8 Norte 0 1025.5 -1 74
2019-02-15 05:00:00 8.7 4 Norte 9 Norte 0 1025.4 -1.4 73
2019-02-15 04:00:00 9.3 6 Norte 10 Nordeste 0 1025.9 -1.3 71
2019-02-15 03:00:00 8.3 2 Norte 5 Norte 0 1026.5 -0.9 74
2019-02-15 02:00:00 8.8 0 Calma 8 Nordeste 0 1026.8 -0.8 73
2019-02-15 01:00:00 9.2 0 Calma 8 Nordeste 0 1027.2 -0.3 73
2019-02-15 00:00:00 10.3 6 Norte 8 Norte 0 1027.4 0.2 70
2019-02-14 23:00:00 11.6 4 Nordeste 10 Nordeste 0 1027.6 0.4 66
2019-02-14 22:00:00 12.2 6 Nordeste 14 Nordeste 0 1027.5 0.6 64
2019-02-14 21:00:00 12.3 5 Este 24 Este 0 1027.2 0.5 65
2019-02-14 20:00:00 13.2 16 Este 28 Este 0 1027.2 0.4 65
2019-02-14 19:00:00 13.8 14 Este 34 Este 0 1026.9 -0.2 63
2019-02-14 18:00:00 15.2 18 Este 35 Este 0 1026.7 -0.9 56
2019-02-14 17:00:00 16.2 21 Sudeste 35 Sudeste 0 1026.8 -1.4 53
2019-02-14 16:00:00 16.9 22 Sudeste 40 Sudeste 0 1027.1 -1.9 49
2019-02-14 15:00:00 16.1 23 Sudeste 36 Sudeste 0 1027.6 -2.2 51
2019-02-14 14:00:00 17.7 19 Sudeste 36 Sudeste 0 1028.2 -1.8 43
2019-02-14 13:00:00 17.5 19 Este 36 Sudeste 0 1029 -0.8 42
2019-02-14 12:00:00 16.7 18 Este 34 Este 0 1029.8 0.1 42
2019-02-14 11:00:00 15.8 15 Este 31 Este 0 1030 0.6 45
2019-02-14 10:00:00 14.4 17 Este 29 Este 0 1029.8 0.6 49
2019-02-14 09:00:00 12.4 3 Nordeste 11 Este 0 1029.7 0.9 55
2019-02-14 08:00:00 8.5 4 Nordeste 10 Norte 0 1029.4 0.9 67
2019-02-14 07:00:00 9.2 7 Norte 12 Norte 0 1029.2 0.6 66
2019-02-14 06:00:00 9.7 5 Norte 13 Norte 0 1028.8 0.2 63
2019-02-14 05:00:00 12.1 5 Nordeste 15 Nordeste 0 1028.5 -0.1 55
2019-02-14 04:00:00 12.7 6 Nordeste 15 Nordeste 0 1028.6 -0.3 53
2019-02-14 03:00:00 12.8 7 Nordeste 21 Nordeste 0 1028.6 -0.3 52
2019-02-14 02:00:00 12.7 8 Nordeste 20 Este 0 1028.6 -0.2 53
2019-02-14 01:00:00 12.6 8 Nordeste 18 Nordeste 0 1028.9 0.5 54
2019-02-14 00:00:00 12.5 7 Nordeste 22 Este 0 1028.9 0.7 56
2019-02-13 23:00:00 11.5 4 Norte 13 Norte 0 1028.8 1 61
2019-02-13 22:00:00 10.5 4 Norte 10 Nordeste 0 1028.4 0.9 63
2019-02-13 21:00:00 11.6 5 Nordeste 14 Nordeste 0 1028.2 0.9 60
2019-02-13 20:00:00 12.5 8 Nordeste 22 Este 0 1027.8 0.6 57
2019-02-13 19:00:00 13 12 Este 30 Este 0 1027.5 0.2 60
2019-02-13 18:00:00 14.4 14 Este 29 Este 0 1027.3 0 54
2019-02-13 17:00:00 15.2 20 Este 32 Este 0 1027.2 -0.5 52
2019-02-13 16:00:00 15.8 17 Sudeste 35 Sudeste 0 1027.3 -1 49
2019-02-13 15:00:00 15.7 21 Sudeste 34 Sudeste 0 1027.3 -1.5 49
2019-02-13 14:00:00 15.3 22 Sudeste 32 Este 0 1027.7 -1 50
2019-02-13 13:00:00 16.2 15 Sudeste 28 Sudeste 0 1028.3 -0.3 43
2019-02-13 12:00:00 15.9 12 Sudeste 23 Este 0 1028.8 0.4 45
2019-02-13 11:00:00 15.8 11 Este 22 Este 0 1028.7 0.8 49
2019-02-13 10:00:00 14.4 10 Este 18 Este 0 1028.6 1.2 56
2019-02-13 09:00:00 11.3 4 Nordeste 9 Nordeste 0 1028.4 1.2 66
2019-02-13 08:00:00 6.8 0 Calma 4 Norte 0 1027.9 0.7 80
2019-02-13 07:00:00 8.1 2 Nordeste 10 Norte 0 1027.4 -0.1 76
2019-02-13 06:00:00 7.2 0 Calma 6 Nordeste 0 1027.2 -0.8 80
2019-02-13 05:00:00 9.1 4 Nordeste 9 Nordeste 0 1027.2 -1.2 79
2019-02-13 04:00:00 7.7 2 Nordeste 5 Nordeste 0 1027.5 -1.3 80
2019-02-13 03:00:00 8.4 0 Calma 4 Norte 0 1028 -1 79
2019-02-13 02:00:00 9.6 0 Calma 10 Norte 0 1028.4 -1 75
2019-02-13 01:00:00 10.6 5 Norte 10 Nordeste 0 1028.8 -0.6 75
2019-02-13 00:00:00 11.4 4 Nordeste 8 Nordeste 0 1029 -0.2 73
2019-02-12 23:00:00 12.1 5 Nordeste 9 Nordeste 0 1029.4 0.3 70
2019-02-12 22:00:00 12.3 4 Nordeste 11 Este 0 1029.4 0.7 70
2019-02-12 21:00:00 12.6 6 Este 11 Este 0 1029.2 0.8 71
2019-02-12 20:00:00 13.4 6 Nordeste 11 Este 0 1029.1 0.8 70
2019-02-12 19:00:00 13.5 8 Este 18 Este 0 1028.7 0.5 69
2019-02-12 18:00:00 14.8 12 Sudeste 23 Sudeste 0 1028.4 0.2 63
2019-02-12 17:00:00 15.6 14 Sudeste 25 Sudeste 0 1028.3 -0.2 59
2019-02-12 16:00:00 15.4 15 Sudeste 28 Sudeste 0 1028.2 -0.9 59
2019-02-12 15:00:00 16.2 15 Sudeste 25 Sudeste 0 1028.2 -1.2 52
2019-02-12 14:00:00 15.7 13 Este 28 Este 0 1028.5 -0.7 54
2019-02-12 13:00:00 15.7 17 Este 32 Sudeste 0 1029.1 0.4 50
2019-02-12 12:00:00 17 19 Este 30 Este 0 1029.4 1.5 44
2019-02-12 11:00:00 15.8 14 Este 28 Nordeste 0 1029.2 2.1 50
2019-02-12 10:00:00 14.6 10 Este 21 Este 0 1028.7 2.3 52
2019-02-12 09:00:00 13.6 9 Este 15 Este 0 1027.9 1.7 52
2019-02-12 08:00:00 12.3 2 Este 8 Nordeste 0 1027.1 1 61
2019-02-12 07:00:00 12.4 5 Nordeste 11 Nordeste 0 1026.4 0.4 62
2019-02-12 06:00:00 13.3 6 Este 13 Este 0 1026.2 0 59
2019-02-12 05:00:00 13.3 4 Este 8 Este 0 1026.1 -0.1 55
2019-02-12 04:00:00 13.8 5 Este 10 Este 0 1026 -0.3 53
2019-02-12 03:00:00 14.1 5 Este 11 Este 0 1026.2 0.1 58
2019-02-12 02:00:00 14 5 Este 14 Este 0 1026.2 0.6 62
2019-02-12 01:00:00 14.1 9 Este 21 Este 0 1026.3 1.2 62
2019-02-12 00:00:00 14.2 12 Este 23 Este 0 1026.1 1.8 64
2019-02-11 23:00:00 14.4 15 Este 29 Este 0 1025.6 1.9 67
2019-02-11 22:00:00 14.5 17 Este 36 Este 0 1025.1 2.2 69
2019-02-11 21:00:00 14.6 21 Este 32 Este 0 1024.3 1.8 72
2019-02-11 20:00:00 16.2 8 Este 14 Este 0 1023.7 1.4 48
2019-02-11 19:00:00 15.7 5 Este 9 Nordeste 0 1022.9 1 62
2019-02-11 18:00:00 16.8 2 Sudeste 8 Sur 0 1022.5 0.7 57
2019-02-11 17:00:00 17.1 7 Sudeste 14 Este 0 1022.3 0.4 57
2019-02-11 16:00:00 17.8 4 Sudoeste 13 Sur 0 1021.9 -0.3 57
2019-02-11 15:00:00 17.9 7 Sur 15 Sur 0 1021.8 -0.7 59
2019-02-11 14:00:00 18.3 7 Sur 14 Sur 0 1021.9 -0.7 56
2019-02-11 13:00:00 18.1 10 Sur 19 Sudeste 0 1022.2 -0.2 59
2019-02-11 12:00:00 17.8 14 Sudeste 22 Sudeste 0 1022.5 0.7 53
2019-02-11 11:00:00 17.3 9 Sudeste 15 Sudeste 0 1022.6 1.4 54
2019-02-11 10:00:00 17.5 4 Sur 7 Sudeste 0 1022.4 1.5 45
2019-02-11 09:00:00 13.9 0 Calma 8 Oeste 0 1021.8 1.2 55
2019-02-11 08:00:00 11.7 3 Norte 11 Norte 0 1021.2 0.8 61
2019-02-11 07:00:00 11.7 7 Noroeste 13 Norte 0 1020.9 0.3 60
2019-02-11 06:00:00 11.4 4 Norte 13 Norte 0 1020.6 0.1 61
2019-02-11 05:00:00 11.3 5 Noroeste 13 Norte 0 1020.4 0 58
2019-02-11 04:00:00 11.2 6 Norte 13 Norte 0 1020.6 0.6 58
2019-02-11 03:00:00 12.5 3 Nordeste 10 Noroeste 0 1020.5 0.4 51
2019-02-11 02:00:00 13.2 4 Nordeste 11 Nordeste 0 1020.4 0.4 46
2019-02-11 01:00:00 12.9 8 Norte 14 Norte 0 1020 -0.2 49
2019-02-11 00:00:00 12.9 9 Noroeste 21 Noroeste 0 1020.1 0.4 48
2019-02-10 23:00:00 13.8 13 Noroeste 21 Noroeste 0 1020 0.9 45
2019-02-10 22:00:00 12.1 3 Noroeste 9 Noroeste 0 1020.2 1.7 54
2019-02-10 21:00:00 12.8 2 Norte 7 Norte 0 1019.7 1.5 54
2019-02-10 20:00:00 14.1 2 Norte 6 Oeste 0 1019.1 1.1 56
2019-02-10 19:00:00 16 3 Sudeste 13 Este 0 1018.5 0.8 54
2019-02-10 18:00:00 17.7 4 Sudeste 13 Sudeste 0 1018.2 0.5 45
2019-02-10 17:00:00 19 8 Sudeste 19 Este 0 1018 -0.2 36
2019-02-10 16:00:00 18.9 11 Sudeste 19 Sudeste 0 1017.7 -1.3 30
2019-02-10 15:00:00 18.5 12 Sudeste 21 Sudeste 0 1017.7 -1.7 38
2019-02-10 14:00:00 18.1 9 Sur 17 Sudeste 0 1018.2 -1.2 44
2019-02-10 13:00:00 17.8 6 Sur 15 Sudoeste 0 1019 -0.1 54
2019-02-10 12:00:00 16.6 8 Sur 13 Sur 0 1019.4 0.8 60
2019-02-10 11:00:00 16.1 4 Sur 9 Sur 0 1019.4 1.5 61
2019-02-10 10:00:00 13.4 2 Sudeste 7 Norte 0 1019.1 1.5 77
2019-02-10 09:00:00 11.1 3 Nordeste 10 Nordeste 0 1018.6 1.2 81
2019-02-10 08:00:00 8.1 3 Este 9 Nordeste 0 1017.9 0.2 82
2019-02-10 07:00:00 8.6 4 Nordeste 10 Nordeste 0 1017.6 -0.2 82
2019-02-10 06:00:00 7.4 2 Norte 8 Noroeste 0 1017.4 -0.8 83
2019-02-10 05:00:00 8 2 Nordeste 8 Este 0 1017.7 -0.7 84
2019-02-10 04:00:00 8.6 0 Calma 9 Norte 0 1017.8 -0.9 81
2019-02-10 03:00:00 9.5 3 Nordeste 11 Nordeste 0 1018.2 -0.6 78
2019-02-10 02:00:00 8.9 3 Nordeste 7 Nordeste 0 1018.4 -0.4 81
2019-02-10 01:00:00 9.3 4 Norte 7 Noroeste 0 1018.7 0 79
2019-02-10 00:00:00 9.9 3 Norte 9 Nordeste 0 1018.8 0.3 76
2019-02-09 23:00:00 10.9 6 Norte 9 Nordeste 0 1018.8 0.4 74
2019-02-09 22:00:00 11.2 5 Nordeste 9 Nordeste 0 1018.7 0.4 72
2019-02-09 21:00:00 11.9 4 Nordeste 7 Nordeste 0 1018.5 0.3 67
2019-02-09 20:00:00 12.9 2 Nordeste 7 Nordeste 0 1018.4 0.1 70
2019-02-09 19:00:00 14.3 2 Oeste 4 Noroeste 0 1018.3 -0.2 66
2019-02-09 18:00:00 16.2 4 Sudoeste 11 Sudoeste 0 1018.2 -0.6 64
2019-02-09 17:00:00 16.5 7 Sur 13 Sudoeste 0 1018.3 -0.9 61
2019-02-09 16:00:00 17.1 5 Sur 14 Sudoeste 0 1018.5 -1.3 52
2019-02-09 15:00:00 17 8 Sur 15 Sur 0 1018.8 -1.6 50
2019-02-09 14:00:00 17.1 8 Sur 14 Sudoeste 0 1019.2 -1.2 50
2019-02-09 13:00:00 16.6 7 Sur 12 Sur 0 1019.8 -0.5 56
2019-02-09 12:00:00 15.9 6 Sur 12 Sur 0 1020.4 0.7 64
2019-02-09 11:00:00 14.9 4 Sur 8 Sudeste 0 1020.4 1.4 72
2019-02-09 10:00:00 12.8 0 Calma 5 Nordeste 0 1020.3 1.8 80
2019-02-09 09:00:00 9.1 2 Este 8 Norte 0 1019.7 1.3 85
2019-02-09 08:00:00 8.1 3 Nordeste 8 Nordeste 0 1019 0.7 86
2019-02-09 07:00:00 9.5 4 Nordeste 10 Nordeste 0 1018.5 0 86
2019-02-09 06:00:00 8.5 3 Norte 7 Nordeste 0 1018.4 -0.1 84
2019-02-09 05:00:00 9.2 0 Calma 5 Norte 0 1018.3 -0.2 83
2019-02-09 04:00:00 9.5 0 Calma 8 Nordeste 0 1018.5 -0.3 84
2019-02-09 03:00:00 9.3 2 Norte 11 Nordeste 0 1018.5 -0.4 80
2019-02-09 02:00:00 10.1 5 Nordeste 11 Nordeste 0 1018.5 -0.4 83
2019-02-09 01:00:00 9.2 4 Nordeste 8 Norte 0 1018.8 0 82
2019-02-09 00:00:00 10.1 2 Noroeste 8 Norte 0 1018.9 0.3 82
2019-02-08 23:00:00 10.7 6 Norte 10 Norte 0 1018.9 0.4 81
2019-02-08 22:00:00 10.9 5 Norte 9 Norte 0 1018.8 0.4 79
2019-02-08 21:00:00 11.3 4 Noroeste 8 Norte 0 1018.6 0.5 78
2019-02-08 20:00:00 12.4 5 Norte 7 Norte 0 1018.5 0.2 77
2019-02-08 19:00:00 13.6 3 Sudoeste 8 Sudoeste 0 1018.4 -0.1 75
2019-02-08 18:00:00 14.9 4 Sur 12 Sudeste 0 1018.1 -0.7 69
2019-02-08 17:00:00 15.6 7 Sudeste 14 Sur 0 1018.3 -1 66
2019-02-08 16:00:00 15.6 9 Sur 19 Sudeste 0 1018.5 -1.7 67
2019-02-08 15:00:00 16.2 7 Sur 14 Sudeste 0 1018.8 -1.9 64
2019-02-08 14:00:00 16.4 6 Sur 15 Sur 0 1019.3 -1.6 64
2019-02-08 13:00:00 15.9 9 Sudeste 17 Sudeste 0 1020.2 -0.7 65
2019-02-08 12:00:00 15.8 9 Sur 14 Sur 0 1020.7 0.2 65
2019-02-08 11:00:00 16.2 4 Sudoeste 10 Noroeste 0 1020.9 1 64
2019-02-08 10:00:00 13.5 4 Noroeste 9 Noroeste 0 1020.9 1.4 77
2019-02-08 09:00:00 11 0 Calma 8 Norte 0 1020.5 1.1 83
2019-02-08 08:00:00 9 2 Nordeste 9 Norte 0 1019.9 0.5 81
2019-02-08 07:00:00 9.7 5 Norte 10 Norte 0 1019.5 -0.2 78
2019-02-08 06:00:00 10.2 7 Nordeste 10 Nordeste 0 1019.4 -0.5 72
2019-02-08 05:00:00 10.3 6 Nordeste 12 Norte 0 1019.4 -0.5 69
2019-02-08 04:00:00 9.1 3 Este 10 Nordeste 0 1019.7 0 75
2019-02-08 03:00:00 10 6 Norte 10 Norte 0 1019.9 0.6 75
2019-02-08 02:00:00 10.6 4 Nordeste 7 Norte 0 1019.9 0.7 67
2019-02-08 01:00:00 11.3 5 Norte 8 Nordeste 0 1019.7 1 60
2019-02-08 00:00:00 11.6 3 Nordeste 11 Nordeste 0 1019.3 1.2 70
2019-02-07 23:00:00 11 2 Norte 9 Norte 0 1019.2 1.5 71
2019-02-07 22:00:00 11.8 3 Nordeste 7 Nordeste 0 1018.7 1.5 68
2019-02-07 21:00:00 12.2 2 Nordeste 6 Nordeste 0 1018.1 1.1 68
2019-02-07 20:00:00 13.3 2 Este 6 Sudeste 0 1017.7 0.8 75
2019-02-07 19:00:00 14.7 3 Este 7 Sudeste 0 1017.2 0 75
2019-02-07 18:00:00 17.4 3 Sudoeste 8 Sur 0 1017 -0.5 52
2019-02-07 17:00:00 18.1 4 Sur 12 Sudeste 0 1016.9 -1.1 53
2019-02-07 16:00:00 18.4 4 Sur 11 Sudoeste 0 1017.2 -1.4 44
2019-02-07 15:00:00 18.3 7 Sur 13 Sudoeste 0 1017.5 -1.6 47
2019-02-07 14:00:00 18.4 8 Sudoeste 14 Sudoeste 0 1018 -1 47
2019-02-07 13:00:00 18.6 6 Sur 12 Sur 0 1018.6 -0.1 36
2019-02-07 12:00:00 17.6 6 Sur 11 Sudoeste 0 1019.1 0.7 52
2019-02-07 11:00:00 17.5 4 Sur 8 Sudeste 0 1019 0.9 46
2019-02-07 10:00:00 15.7 2 Este 5 Nordeste 0 1018.7 0.6 54
2019-02-07 09:00:00 11.8 0 Calma 6 Nordeste 0 1018.4 0.1 59
2019-02-07 08:00:00 9 0 Calma 7 Nordeste 0 1018.1 0.1 64
2019-02-07 07:00:00 8.8 3 Nordeste 10 Norte 0 1018.1 -0.3 62
2019-02-07 06:00:00 10 7 Norte 10 Nordeste 0 1018.3 -0.3 57
2019-02-07 05:00:00 9.4 3 Nordeste 10 Nordeste 0 1018 -0.9 65
2019-02-07 04:00:00 8.9 4 Nordeste 9 Nordeste 0 1018.4 -0.8 66
2019-02-07 03:00:00 9 2 Nordeste 8 Nordeste 0 1018.6 -0.7 70
2019-02-07 02:00:00 10 0 Calma 9 Norte 0 1018.9 -0.5 63
2019-02-07 01:00:00 9 3 Norte 8 Norte 0 1019.2 -0.3 65
2019-02-07 00:00:00 9.9 2 Nordeste 7 Norte 0 1019.3 -0.3 56
2019-02-06 23:00:00 10.5 5 Norte 9 Norte 0 1019.4 -0.2 50
2019-02-06 22:00:00 11.9 3 Nordeste 8 Nordeste 0 1019.5 -0.2 51
2019-02-06 21:00:00 12.4 5 Norte 8 Norte 0 1019.6 0 50
2019-02-06 20:00:00 13.6 2 Este 8 Nordeste 0 1019.6 -0.2 54
2019-02-06 19:00:00 15 5 Sudeste 7 Sudeste 0 1019.7 -0.4 54
2019-02-06 18:00:00 16.9 2 Sur 7 Sur 0 1019.6 -0.9 42
2019-02-06 17:00:00 17.8 2 Noroeste 13 Sur 0 1019.8 -1.3 39
2019-02-06 16:00:00 18.1 5 Sudoeste 13 Sudeste 0 1020.1 -1.8 50
2019-02-06 15:00:00 17.8 8 Sur 13 Sur 0 1020.5 -2.1 55
2019-02-06 14:00:00 18.8 8 Sur 13 Sur 0 1021.1 -1.8 38
2019-02-06 13:00:00 18.3 9 Sudeste 16 Sudeste 0 1021.9 -0.9 42
2019-02-06 12:00:00 17.6 8 Sudeste 15 Sudeste 0 1022.6 0.1 52
2019-02-06 11:00:00 16.9 6 Sur 10 Sudeste 0 1022.9 0.6 59
2019-02-06 10:00:00 16.7 0 Calma 4 Este 0 1022.8 0.8 36
2019-02-06 09:00:00 12.4 0 Calma 8 Norte 0 1022.5 0.6 47
2019-02-06 08:00:00 8.8 3 Nordeste 7 Norte 0 1022.3 0.5 56
2019-02-06 07:00:00 9.1 4 Nordeste 7 Este 0 1022 -0.2 53
2019-02-06 06:00:00 9.7 3 Nordeste 9 Nordeste 0 1021.9 -0.5 50
2019-02-06 05:00:00 10.5 4 Nordeste 8 Este 0 1021.8 -0.7 44
2019-02-06 04:00:00 9.9 2 Nordeste 8 Norte 0 1022.2 -0.6 50
2019-02-06 03:00:00 9.3 0 Calma 6 Nordeste 0 1022.4 -0.5 52
2019-02-06 02:00:00 9.5 4 Este 5 Este 0 1022.5 -0.5 50
2019-02-06 01:00:00 10.2 3 Norte 7 Nordeste 0 1022.8 -0.1 46
2019-02-06 00:00:00 9.5 2 Nordeste 10 Nordeste 0 1022.9 0.1 42
2019-02-05 23:00:00 10.5 6 Norte 11 Norte 0 1023 0.2 39
2019-02-05 22:00:00 11.8 5 Nordeste 11 Nordeste 0 1022.9 0.4 49
2019-02-05 21:00:00 11.1 2 Este 5 Norte 0 1022.8 0.7 48
2019-02-05 20:00:00 12 4 Norte 8 Nordeste 0 1022.8 0.4 55
2019-02-05 19:00:00 14.6 3 Sudeste 7 Sudeste 0 1022.5 0 58
2019-02-05 18:00:00 17.5 3 Sudoeste 8 Oeste 0 1022.1 -0.7 44
2019-02-05 17:00:00 17.1 6 Sur 12 Sur 0 1022.4 -1.1 43
2019-02-05 16:00:00 17.4 4 Sudoeste 15 Sur 0 1022.5 -1.7 44
2019-02-05 15:00:00 17.2 8 Sudoeste 18 Sur 0 1022.8 -1.9 43
2019-02-05 14:00:00 17 8 Sur 14 Sur 0 1023.5 -1.3 37
2019-02-05 13:00:00 16.4 6 Sur 16 Sur 0 1024.2 -0.3 49
2019-02-05 12:00:00 17.3 5 Sur 10 Sur 0 1024.7 0.6 39
2019-02-05 11:00:00 15.7 5 Sudeste 10 Sur 0 1024.8 1.3 47
2019-02-05 10:00:00 14.6 4 Sudeste 9 Sudeste 0 1024.5 1.2 50
2019-02-05 09:00:00 10.5 5 Nordeste 11 Nordeste 0 1024.1 0.7 60
2019-02-05 08:00:00 7.5 5 Nordeste 12 Nordeste 0 1023.5 0.3 73
2019-02-05 07:00:00 7.5 4 Nordeste 11 Nordeste 0 1023.3 0.2 67
2019-02-05 06:00:00 8.3 5 Nordeste 11 Nordeste 0 1023.4 -0.2 69
2019-02-05 05:00:00 8.1 6 Nordeste 12 Nordeste 0 1023.2 -0.6 71
2019-02-05 04:00:00 6.4 6 Noroeste 10 Norte 0 1023.1 -1 70
2019-02-05 03:00:00 6.7 3 Norte 8 Noroeste 0 1023.6 -0.8 68
2019-02-05 02:00:00 7.4 3 Nordeste 9 Norte 0 1023.8 -0.4 62
2019-02-05 01:00:00 7.7 3 Norte 8 Nordeste 0 1024.1 0.1 59
2019-02-05 00:00:00 7.9 0 Calma 7 Nordeste 0 1024.4 0.6 59
2019-02-04 23:00:00 8.5 3 Norte 8 Nordeste 0 1024.2 0.6 63
2019-02-04 22:00:00 10.7 4 Nordeste 12 Norte 0 1024 0.8 60
2019-02-04 21:00:00 11.2 6 Nordeste 15 Nordeste 0 1023.8 0.7 65
2019-02-04 20:00:00 12.1 6 Nordeste 12 Nordeste 0 1023.6 0.6 61
2019-02-04 19:00:00 13 3 Noroeste 17 Sur 0 1023.2 0.1 62
2019-02-04 18:00:00 14.7 10 Sudoeste 20 Sudoeste 0 1023.1 -0.3 50
2019-02-04 17:00:00 15.6 12 Sudoeste 24 Sudoeste 0 1023 -1 45
2019-02-04 16:00:00 16.1 12 Sudoeste 23 Sudoeste 0 1023.1 -1.6 41
2019-02-04 15:00:00 15.9 6 Sur 15 Sudoeste 0 1023.4 -1.7 39
2019-02-04 14:00:00 15.8 8 Sur 17 Sudoeste 0 1024 -1 26
2019-02-04 13:00:00 15.3 8 Sur 18 Sur 0 1024.7 0 20
2019-02-04 12:00:00 15.3 5 Sudeste 15 Sur 0 1025.1 0.7 15
2019-02-04 11:00:00 14 4 Oeste 15 Sudoeste 0 1025 0.8 16
2019-02-04 10:00:00 12.2 5 Sur 10 Nordeste 0 1024.7 1.1 22
2019-02-04 09:00:00 8.2 6 Sur 19 Norte 0 1024.4 0.8 29
2019-02-04 08:00:00 5.2 10 Norte 21 Noroeste 0 1024.2 0.7 35
2019-02-04 07:00:00 6.3 12 Noroeste 19 Noroeste 0 1023.6 0.3 31
2019-02-04 06:00:00 5.1 8 Oeste 14 Oeste 0 1023.6 0.2 34
2019-02-04 05:00:00 5.1 3 Noroeste 10 Nordeste 0 1023.5 -0.2 40
2019-02-04 04:00:00 6.4 2 Sudoeste 15 Norte 0 1023.3 -0.5 34
2019-02-04 03:00:00 6.7 9 Norte 18 Norte 0 1023.4 0 35
2019-02-04 02:00:00 7 3 Noroeste 19 Norte 0 1023.7 0.9 33
2019-02-04 01:00:00 6.9 10 Noroeste 15 Norte 0 1023.8 1.7 36
2019-02-04 00:00:00 8.3 5 Oeste 18 Noroeste 0 1023.4 1.8 32
2019-02-03 23:00:00 9.1 10 Noroeste 17 Noroeste 0 1022.8 2 31
2019-02-03 22:00:00 9.6 2 Noroeste 21 Noroeste 0 1022.1 1.6 29
2019-02-03 21:00:00 11 9 Noroeste 26 Noroeste 0 1021.6 2.3 25
2019-02-03 20:00:00 12 13 Noroeste 26 Noroeste 0 1020.8 1.6 23
2019-02-03 19:00:00 12.8 10 Noroeste 35 Noroeste 0 1020.5 2 21
2019-02-03 18:00:00 14.3 14 Norte 45 Norte 0 1019.3 1.2 17
2019-02-03 17:00:00 15.3 21 Norte 46 Noroeste 0 1019.2 0.8 15
2019-02-03 16:00:00 16 13 Norte 39 Norte 0 1018.5 -0.2 14
2019-02-03 15:00:00 15.6 13 Norte 51 Oeste 0 1018.1 -1.5 14
2019-02-03 14:00:00 15.6 17 Norte 49 Noroeste 0 1018.4 -1.5 13
2019-02-03 13:00:00 14.8 21 Noroeste 42 Norte 0 1018.7 -0.3 14
2019-02-03 12:00:00 13.5 23 Norte 53 Noroeste 0 1019.6 1.1 14
2019-02-03 11:00:00 12.7 18 Norte 47 Noroeste 0 1019.9 2.5 15
2019-02-03 10:00:00 12.2 7 Oeste 18 Oeste 0 1019 2 24
2019-02-03 09:00:00 8.6 5 Sur 10 Nordeste 0 1018.5 2.3 33
2019-02-03 08:00:00 6 5 Noroeste 9 Oeste 0 1017.4 1.7 39
2019-02-03 07:00:00 7.1 2 Noroeste 21 Oeste 0 1017 1.7 35
2019-02-03 06:00:00 8.7 12 Oeste 23 Oeste 0 1016.2 1.5 31
2019-02-03 05:00:00 9 10 Oeste 21 Oeste 0 1015.7 1.1 31
2019-02-03 04:00:00 9.8 7 Sudoeste 41 Noroeste 0 1015.3 1.1 28
2019-02-03 03:00:00 10.4 19 Noroeste 37 Noroeste 0 1014.7 0.6 27
2019-02-03 02:00:00 9.9 14 Noroeste 30 Noroeste 0 1014.6 0.9 29
2019-02-03 01:00:00 9 12 Noroeste 23 Noroeste 0 1014.2 1.2 36
2019-02-03 00:00:00 9.2 10 Noroeste 35 Noroeste 0 1014.1 2.1 35
2019-02-02 23:00:00 10 17 Noroeste 31 Noroeste 0 1013.7 3 33
2019-02-02 22:00:00 10.3 14 Noroeste 44 Norte 0 1013 3.8 38
2019-02-02 21:00:00 11.2 21 Noroeste 43 Noroeste 0 1012 4.2 33
2019-02-02 20:00:00 11.7 22 Noroeste 51 Noroeste 0 1010.7 3.5 31
2019-02-02 19:00:00 12.8 30 Noroeste 49 Noroeste 0 1009.2 3.1 27
2019-02-02 18:00:00 14.4 27 Noroeste 56 Noroeste 0 1007.8 2.7 22
2019-02-02 17:00:00 16 18 Noroeste 51 Norte 0 1007.2 2.6 19
2019-02-02 16:00:00 16.3 21 Noroeste 50 Noroeste 0 1006.1 1.8 19
2019-02-02 15:00:00 16.5 19 Noroeste 56 Noroeste 0 1005.1 1.1 20
2019-02-02 14:00:00 16.3 22 Noroeste 73 Noroeste 0 1004.6 1.3 21
2019-02-02 13:00:00 16.1 22 Noroeste 55 Noroeste 0 1004.3 2.1 22
2019-02-02 12:00:00 14.8 29 Noroeste 64 Noroeste 0 1004 2.8 27
2019-02-02 11:00:00 14.2 23 Noroeste 60 Noroeste 0 1003.3 3.6 28
2019-02-02 10:00:00 13.6 12 Noroeste 28 Noroeste 0 1002.2 2.9 32
2019-02-02 09:00:00 11.4 9 Noroeste 46 Oeste 0 1001.2 2 40
2019-02-02 08:00:00 10.4 24 Oeste 44 Oeste 0 999.7 0.9 43
2019-02-02 07:00:00 10.5 22 Oeste 66 Oeste 0 999.3 1 43
2019-02-02 06:00:00 10.7 24 Oeste 55 Noroeste 0 999.2 1 40
2019-02-02 05:00:00 11.6 24 Noroeste 64 Noroeste 0 998.8 1.1 33
2019-02-02 04:00:00 11.5 40 Noroeste 72 Oeste 0 998.3 0.8 38
2019-02-02 03:00:00 11.9 29 Noroeste 65 Oeste 0 998.2 1.1 34
2019-02-02 02:00:00 11.9 28 Oeste 57 Noroeste 0 997.7 0.4 37
2019-02-02 01:00:00 12.3 24 Oeste 48 Oeste 0 997.5 1 37
2019-02-02 00:00:00 12.2 25 Oeste 51 Oeste 0 997.1 0.2 40
2019-02-01 23:00:00 12.2 15 Oeste 41 Oeste 0 997.3 2.7 36
2019-02-01 22:00:00 11.6 17 Oeste 45 Oeste 0 996.5 2.7 49
2019-02-01 21:00:00 13.5 37 Oeste 75 Noroeste 0 996.9 2.9 43
2019-02-01 20:00:00 15.4 26 Oeste 54 Oeste 0 994.6 0.7 29
2019-02-01 19:00:00 15.6 31 Oeste 63 Oeste 0 993.8 0 30
2019-02-01 18:00:00 17.2 32 Oeste 54 Noroeste 0 994 1.1 25
2019-02-01 17:00:00 18.3 35 Oeste 61 Oeste 0 993.9 1 24
2019-02-01 16:00:00 18.9 33 Noroeste 68 Noroeste 0 993.8 0.2 27
2019-02-01 15:00:00 20 40 Noroeste 68 Noroeste 0 992.9 -1 26
2019-02-01 14:00:00 20.2 39 Noroeste 85 Noroeste 0 992.9 -0.9 25
2019-02-01 13:00:00 20 45 Oeste 74 Oeste 0 993.6 -0.1 27
2019-02-01 12:00:00 18.3 17 Sudoeste 37 Oeste 0 993.9 0.3 61
2019-02-01 11:00:00 18.9 15 Oeste 50 Sudoeste 0 993.8 0 58
2019-02-01 10:00:00 16.7 17 Sudoeste 44 Sudoeste 0 993.7 -0.3 65
2019-02-01 09:00:00 16.2 20 Sudoeste 58 Oeste 0 993.6 -1.1 69
2019-02-01 08:00:00 15.3 13 Sudoeste 36 Sudoeste 0 993.8 -2.1 67
2019-02-01 07:00:00 14.1 3 Nordeste 17 Sur 0 994 -2.7 69
2019-02-01 06:00:00 13.1 3 Sudoeste 8 Oeste 0 994.7 -2.8 69
2019-02-01 05:00:00 13.2 5 Norte 12 Norte 0 995.9 -2.5 67
2019-02-01 04:00:00 13.3 6 Nordeste 12 Noroeste 0 996.7 -2.7 67
2019-02-01 03:00:00 12.4 5 Este 9 Este 0 997.5 -2.4 73
2019-02-01 02:00:00 13.7 3 Norte 12 Nordeste 0 998.4 -2.6 68
2019-02-01 01:00:00 14.7 5 Norte 11 Sur 0 999.4 -2 73
2019-02-01 00:00:00 14.5 5 Sudeste 12 Norte 0 999.9 -1 66
2019-01-31 23:00:00 15.2 4 Oeste 21 Sudoeste 0 1001 -0.7 67
2019-01-31 22:00:00 16.2 7 Oeste 28 Oeste 0 1001.4 0 64
2019-01-31 21:00:00 18.3 20 Oeste 39 Noroeste 0 1000.9 -0.3 36
2019-01-31 20:00:00 18.3 21 Oeste 49 Noroeste 0 1001.7 0.5 39
2019-01-31 19:00:00 18.4 25 Noroeste 61 Oeste 0 1001.4 0.4 37
2019-01-31 18:00:00 19.8 26 Oeste 55 Noroeste 0 1001.2 -0.4 33
2019-01-31 17:00:00 21.8 26 Oeste 59 Oeste 0 1001.2 -1.2 30
2019-01-31 16:00:00 23 29 Noroeste 54 Oeste 0 1001 -2.5 27
2019-01-31 15:00:00 22.8 30 Oeste 53 Oeste 0.2 1001.6 -2.5 31
2019-01-31 14:00:00 21.2 9 Oeste 25 Sudoeste 0 1002.4 -1.3 45
2019-01-31 13:00:00 16.8 10 Oeste 26 Sudoeste 0 1003.5 0.2 65
2019-01-31 12:00:00 15.8 12 Oeste 27 Sudoeste 0 1004.1 1.1 70
2019-01-31 11:00:00 17.8 13 Oeste 44 Oeste 0 1003.7 1.3 48
2019-01-31 10:00:00 17.3 19 Oeste 40 Oeste 0 1003.3 1 48
2019-01-31 09:00:00 16.8 20 Oeste 48 Oeste 0 1003 0.6 49
2019-01-31 08:00:00 16.7 22 Oeste 44 Oeste 0 1002.4 -0.9 47
2019-01-31 07:00:00 15.5 10 Sudoeste 33 Sur 0 1002.3 -1.9 51
2019-01-31 06:00:00 15.3 17 Oeste 32 Oeste 0 1002.4 -2 52
2019-01-31 05:00:00 15.7 22 Oeste 41 Oeste 0 1003.3 -1.5 46
2019-01-31 04:00:00 15.5 15 Oeste 37 Oeste 0 1004.2 -1.8 49
2019-01-31 03:00:00 15.3 20 Oeste 55 Oeste 0.2 1004.4 -2.1 50
2019-01-31 02:00:00 16.2 22 Oeste 39 Oeste 0 1004.8 -1.8 42
2019-01-31 01:00:00 15.7 10 Oeste 32 Oeste 0 1006 -0.7 43
2019-01-31 00:00:00 15.6 13 Oeste 39 Noroeste 0 1006.5 -0.6 41
2019-01-30 23:00:00 15.2 18 Oeste 42 Oeste 0 1006.6 -0.6 41
2019-01-30 22:00:00 15.5 22 Oeste 39 Oeste 0 1006.7 -0.5 34
2019-01-30 21:00:00 15.3 19 Oeste 35 Oeste 0 1007.1 0 32
2019-01-30 20:00:00 15.7 18 Oeste 45 Noroeste 0 1007.2 0.3 30
2019-01-30 19:00:00 16 17 Oeste 32 Oeste 0 1007.2 0.2 29
2019-01-30 18:00:00 16.6 15 Oeste 35 Oeste 0 1007.1 -0.3 27
2019-01-30 17:00:00 17.4 22 Oeste 40 Oeste 0 1006.9 -1.3 25
2019-01-30 16:00:00 19.1 21 Oeste 38 Oeste 0 1007 -1.9 22
2019-01-30 15:00:00 19.5 24 Oeste 44 Oeste 0 1007.4 -2 23
2019-01-30 14:00:00 19.9 23 Oeste 43 Oeste 0 1008.2 -1.2 23
2019-01-30 13:00:00 20 21 Oeste 40 Oeste 0 1008.9 -0.2 24
2019-01-30 12:00:00 18.9 19 Oeste 39 Oeste 0 1009.4 0.4 26
2019-01-30 11:00:00 16.6 19 Noroeste 35 Noroeste 0 1009.4 1.8 34
2019-01-30 10:00:00 14.5 16 Noroeste 31 Noroeste 0 1009.1 1.7 41
2019-01-30 09:00:00 14.7 21 Noroeste 51 Noroeste 0 1009 1.7 42
2019-01-30 08:00:00 14.6 24 Noroeste 41 Noroeste 0 1007.6 -0.2 42
2019-01-30 07:00:00 14.9 16 Oeste 28 Noroeste 0 1007.4 -0.5 40
2019-01-30 06:00:00 15.4 16 Noroeste 44 Noroeste 0 1007.3 -0.6 42
2019-01-30 05:00:00 15.2 20 Noroeste 44 Noroeste 0 1007.8 0 45
2019-01-30 04:00:00 14.5 13 Noroeste 36 Noroeste 0 1007.9 -0.4 47
2019-01-30 03:00:00 14.4 17 Noroeste 40 Oeste 0 1007.9 -0.1 49
2019-01-30 02:00:00 14.9 19 Oeste 38 Oeste 0 1007.8 -0.7 46
2019-01-30 01:00:00 15.4 17 Oeste 38 Oeste 0 1008.3 0.3 44
2019-01-30 00:00:00 15.7 20 Noroeste 39 Noroeste 0 1008 -0.2 41
2019-01-29 23:00:00 16.2 13 Oeste 32 Oeste 0 1008.5 0.6 38
2019-01-29 22:00:00 16.1 16 Oeste 41 Oeste 0 1008 -0.2 39
2019-01-29 21:00:00 15.7 17 Oeste 42 Oeste 0 1008.2 0.9 40
2019-01-29 20:00:00 15.7 22 Oeste 38 Oeste 0 1007.9 0.9 38
2019-01-29 19:00:00 16.4 18 Noroeste 57 Noroeste 0 1008.2 0.8 35
2019-01-29 18:00:00 17.3 35 Oeste 67 Oeste 0 1007.3 -0.7 33
2019-01-29 17:00:00 18.7 30 Oeste 62 Oeste 0 1007 -2.6 31
2019-01-29 16:00:00 18.4 32 Oeste 73 Oeste 0 1007.4 -3.4 32
2019-01-29 15:00:00 20.2 31 Oeste 59 Oeste 0 1008 -4.4 28
2019-01-29 14:00:00 19.4 26 Oeste 47 Oeste 0 1009.6 -3.1 31
2019-01-29 13:00:00 19.3 18 Oeste 35 Oeste 0 1010.8 -2 31
2019-01-29 12:00:00 17.6 20 Oeste 39 Oeste 0 1012.4 -0.5 34
2019-01-29 11:00:00 17.9 24 Oeste 39 Oeste 0 1012.7 0.3 33
2019-01-29 10:00:00 16.1 10 Oeste 23 Oeste 0 1012.8 0.6 39
2019-01-29 09:00:00 12.3 7 Oeste 15 Noroeste 0 1012.9 0.6 49
2019-01-29 08:00:00 12.4 9 Noroeste 21 Norte 0 1012.4 -0.3 47
2019-01-29 07:00:00 12.6 10 Noroeste 25 Noroeste 0 1012.2 -0.9 48
2019-01-29 06:00:00 12 4 Noroeste 17 Noroeste 0 1012.3 -0.8 50
2019-01-29 05:00:00 12.5 3 Oeste 9 Sudeste 0 1012.7 -0.7 51
2019-01-29 04:00:00 13.8 7 Noroeste 28 Noroeste 0 1013.1 -0.4 46
2019-01-29 03:00:00 13.7 13 Noroeste 27 Noroeste 0 1013.1 -0.5 47
2019-01-29 02:00:00 14.9 15 Noroeste 28 Oeste 0 1013.4 -0.2 44
2019-01-29 01:00:00 14.2 14 Noroeste 28 Noroeste 0 1013.5 0 46
2019-01-29 00:00:00 12.3 3 Oeste 12 Noroeste 0 1013.6 0.9 50
2019-01-28 23:00:00 12.8 5 Noroeste 10 Sudoeste 0 1013.6 1.8 46
2019-01-28 22:00:00 14.6 5 Sudoeste 37 Noroeste 0 1013.5 3.1 37
2019-01-28 21:00:00 16.1 24 Norte 45 Noroeste 0 1012.7 3.7 31
2019-01-28 20:00:00 14.9 14 Noroeste 38 Noroeste 0 1011.8 3.6 33
2019-01-28 19:00:00 15.7 21 Oeste 42 Oeste 0 1010.4 1.8 31
2019-01-28 18:00:00 18.6 27 Oeste 46 Noroeste 0 1009 -0.4 23
2019-01-28 17:00:00 21 25 Oeste 43 Oeste 0 1008.2 -2.5 19
2019-01-28 16:00:00 19.1 3 Este 14 Sudeste 0 1008.6 -3.1 40
2019-01-28 15:00:00 18.1 8 Sur 39 Sudoeste 0 1009.4 -3.6 53
2019-01-28 14:00:00 17.6 15 Sur 35 Sudoeste 0 1010.7 -3.2 50
2019-01-28 13:00:00 20.4 23 Oeste 43 Oeste 0 1011.7 -2.9 19
2019-01-28 12:00:00 18.7 23 Oeste 40 Oeste 0 1013 -1.4 23
2019-01-28 11:00:00 16.5 23 Noroeste 41 Noroeste 0 1013.9 0.4 29
2019-01-28 10:00:00 13.5 9 Noroeste 21 Norte 0 1014.6 1.8 36
2019-01-28 09:00:00 11.7 9 Norte 20 Noroeste 0 1014.4 0.8 39
2019-01-28 08:00:00 11.1 9 Noroeste 23 Noroeste 0 1013.5 0.3 42
2019-01-28 07:00:00 9.6 10 Noroeste 18 Noroeste 0 1012.8 -0.6 49
2019-01-28 06:00:00 10.1 8 Noroeste 14 Noroeste 0 1013.6 0 48
2019-01-28 05:00:00 9.9 9 Oeste 19 Noroeste 0 1013.2 -0.1 49
2019-01-28 04:00:00 11.6 12 Noroeste 23 Norte 0 1013.4 0 44
2019-01-28 03:00:00 12.4 12 Noroeste 27 Noroeste 0 1013.6 0.4 43
2019-01-28 02:00:00 12.6 6 Sudoeste 18 Oeste 0 1013.3 0.6 42
2019-01-28 01:00:00 13.4 12 Noroeste 35 Noroeste 0 1013.4 0.5 40
2019-01-28 00:00:00 13.8 18 Noroeste 37 Noroeste 0 1013.2 1.5 39
2019-01-27 23:00:00 13.6 17 Noroeste 34 Noroeste 0 1012.7 1.8 38
2019-01-27 22:00:00 14.2 4 Oeste 15 Sudoeste 0 1012.9 2.7 37
2019-01-27 21:00:00 14.9 7 Noroeste 32 Noroeste 0 1011.7 2.7 35
2019-01-27 20:00:00 16.1 13 Noroeste 30 Oeste 0 1010.9 3 28
2019-01-27 19:00:00 16.8 11 Noroeste 31 Norte 0 1010.2 2.8 28
2019-01-27 18:00:00 19.1 14 Noroeste 37 Noroeste 0 1009 1.8 23
2019-01-27 17:00:00 21 19 Noroeste 43 Noroeste 0 1007.9 0.4 21
2019-01-27 16:00:00 22 17 Noroeste 41 Oeste 0 1007.4 -0.8 18
2019-01-27 15:00:00 23.1 22 Oeste 45 Oeste 0 1007.2 -1.3 20
2019-01-27 14:00:00 23.4 22 Oeste 44 Oeste 0 1007.5 -0.9 21
2019-01-27 13:00:00 23 17 Oeste 31 Oeste 0 1008.2 -0.6 21
2019-01-27 12:00:00 21.3 8 Sudoeste 21 Oeste 0 1008.5 -0.1 36
2019-01-27 11:00:00 18.7 10 Noroeste 22 Noroeste 0 1008.4 0 33
2019-01-27 10:00:00 14.6 4 Norte 10 Norte 0 1008.8 0.2 46
2019-01-27 09:00:00 9.4 2 Sur 10 Nordeste 0 1008.6 0 70
2019-01-27 08:00:00 8.6 4 Nordeste 10 Nordeste 0 1008.4 -1.1 77
2019-01-27 07:00:00 8.2 4 Norte 10 Nordeste 0 1008.6 -1.5 78
2019-01-27 06:00:00 8.5 2 Este 12 Nordeste 0 1008.6 -2.1 76
2019-01-27 05:00:00 7.9 3 Nordeste 10 Nordeste 0 1009.5 -1.6 79
2019-01-27 04:00:00 7.8 3 Noroeste 10 Nordeste 0 1010.1 -1.6 80
2019-01-27 03:00:00 8.6 4 Norte 10 Nordeste 0 1010.7 -1.5 78
2019-01-27 02:00:00 9.4 0 Calma 11 Nordeste 0 1011.1 -1.7 75
2019-01-27 01:00:00 10 7 Norte 11 Norte 0 1011.7 -1.5 78
2019-01-27 00:00:00 9.9 6 Norte 10 Norte 0 1012.2 -1.2 78
2019-01-26 23:00:00 10.7 0 Calma 10 Norte 0 1012.8 -1 74
2019-01-26 22:00:00 11.5 0 Calma 9 Nordeste 0 1013.2 -0.5 68
2019-01-26 21:00:00 12.6 7 Nordeste 9 Nordeste 0 1013.4 -0.4 64
2019-01-26 20:00:00 12.8 3 Nordeste 6 Nordeste 0 1013.8 -0.4 59
2019-01-26 19:00:00 14.3 4 Noroeste 5 Noroeste 0 1013.7 -0.8 59
2019-01-26 18:00:00 16.9 4 Sudoeste 10 Sur 0 1013.8 -1.3 49
2019-01-26 17:00:00 17.7 5 Sudoeste 13 Sudoeste 0 1014.2 -1.6 44
2019-01-26 16:00:00 18.3 7 Sudoeste 15 Sur 0 1014.5 -2.2 39
2019-01-26 15:00:00 19.2 6 Sur 15 Sur 0 1015.1 -2.3 36
2019-01-26 14:00:00 18.4 7 Sudeste 15 Sur 0 1015.8 -1.5 35
2019-01-26 13:00:00 18.3 7 Sur 14 Sur 0 1016.7 -0.3 43
2019-01-26 12:00:00 18.2 4 Sur 11 Sudeste 0 1017.4 0.8 45
2019-01-26 11:00:00 17.5 5 Sudeste 14 Este 0 1017.3 1.6 42
2019-01-26 10:00:00 16.1 8 Sudeste 12 Sudeste 0 1017 1.7 51
2019-01-26 09:00:00 10.7 0 Calma 8 Nordeste 0 1016.6 1.7 54
2019-01-26 08:00:00 10.2 4 Este 10 Nordeste 0 1015.7 0.9 56
2019-01-26 07:00:00 10.4 3 Noroeste 17 Nordeste 0 1015.3 1 53
2019-01-26 06:00:00 11 5 Nordeste 13 Noroeste 0 1014.9 0.9 53
2019-01-26 05:00:00 11.5 6 Norte 9 Noroeste 0 1014.8 1.1 51
2019-01-26 04:00:00 12.6 5 Nordeste 11 Nordeste 0 1014.3 0.5 46
2019-01-26 03:00:00 11.6 8 Noroeste 13 Noroeste 0 1014 0.6 53
2019-01-26 02:00:00 12.2 9 Noroeste 18 Noroeste 0 1013.7 0.4 52
2019-01-26 01:00:00 13.9 10 Noroeste 16 Noroeste 0 1013.8 0.7 46
2019-01-26 00:00:00 13.5 7 Oeste 12 Noroeste 0 1013.4 0.5 49
2019-01-25 23:00:00 13 9 Noroeste 13 Noroeste 0 1013.3 0.9 53
2019-01-25 22:00:00 13.1 5 Nordeste 15 Norte 0 1013.1 0.9 67
2019-01-25 21:00:00 13 4 Noroeste 9 Nordeste 0 1012.9 1.1 62
2019-01-25 20:00:00 13.7 6 Norte 9 Norte 0 1012.4 0.6 64
2019-01-25 19:00:00 15.8 2 Nordeste 8 Sudeste 0 1012.2 0.8 64
2019-01-25 18:00:00 17.7 3 Sur 14 Sudoeste 0 1011.8 1 57
2019-01-25 17:00:00 18.7 6 Sudoeste 18 Sur 0 1011.8 0.5 54
2019-01-25 16:00:00 19.2 6 Sur 30 Sur 0 1011.4 -0.5 56
2019-01-25 15:00:00 23.1 11 Nordeste 28 Norte 0 1010.8 -1.6 22
2019-01-25 14:00:00 22.6 15 Norte 34 Norte 0 1011.3 -1.1 23
2019-01-25 13:00:00 21.9 12 Norte 36 Noroeste 0 1011.9 0 25
2019-01-25 12:00:00 20.8 16 Noroeste 32 Noroeste 0 1012.4 0.9 27
2019-01-25 11:00:00 19.4 13 Norte 33 Norte 0 1012.4 1.3 30
2019-01-25 10:00:00 17.9 12 Noroeste 28 Noroeste 0 1011.9 1.6 34
2019-01-25 09:00:00 14.2 12 Noroeste 26 Noroeste 0 1011.5 1.5 47
2019-01-25 08:00:00 11.6 9 Noroeste 14 Noroeste 0 1011.1 1.1 55
2019-01-25 07:00:00 11 6 Oeste 14 Norte 0 1010.3 0.4 58
2019-01-25 06:00:00 11.7 10 Noroeste 17 Noroeste 0 1010 0.1 57
2019-01-25 05:00:00 11.3 2 Sudoeste 14 Norte 0 1010 0.1 57
2019-01-25 04:00:00 12.9 8 Norte 20 Norte 0 1009.9 0.2 51
2019-01-25 03:00:00 11.3 7 Noroeste 13 Norte 0 1009.9 0.2 62
2019-01-25 02:00:00 10.8 5 Oeste 12 Norte 0 1009.9 0.5 72
2019-01-25 01:00:00 12.5 7 Norte 13 Norte 0 1009.7 0.4 71
2019-01-25 00:00:00 13.3 3 Noroeste 10 Norte 0 1009.7 0.9 74
2019-01-24 23:00:00 13.9 3 Norte 8 Noroeste 0 1009.4 1.7 75
2019-01-24 22:00:00 14.7 3 Nordeste 15 Nordeste 0 1009.3 3 73
2019-01-24 21:00:00 14.8 10 Este 23 Nordeste 0 1008.8 3.6 67
2019-01-24 20:00:00 17.1 5 Este 12 Oeste 0 1007.7 3.1 48
2019-01-24 19:00:00 18.9 4 Este 17 Nordeste 0 1006.3 1.7 33
2019-01-24 18:00:00 20.2 7 Norte 18 Nordeste 0 1005.2 0.7 29
2019-01-24 17:00:00 20.5 5 Nordeste 27 Norte 0 1004.6 0 28
2019-01-24 16:00:00 20.7 10 Norte 45 Norte 0 1004.6 -0.1 27
2019-01-24 15:00:00 20.6 10 Noroeste 40 Norte 0 1004.5 -0.6 27
2019-01-24 14:00:00 20.6 14 Norte 51 Noroeste 0 1004.6 -0.1 26
2019-01-24 13:00:00 20.5 9 Oeste 27 Oeste 0 1004.7 0.9 32
2019-01-24 12:00:00 19.9 14 Oeste 31 Oeste 0 1005.1 1.6 34
2019-01-24 11:00:00 18.9 19 Oeste 32 Oeste 0 1004.7 2.1 36
2019-01-24 10:00:00 16.6 15 Oeste 28 Oeste 0 1003.8 2 43
2019-01-24 09:00:00 14.2 7 Oeste 27 Oeste 0 1003.5 2.1 51
2019-01-24 08:00:00 14.6 17 Oeste 37 Oeste 0 1002.6 1.3 49
2019-01-24 07:00:00 14.9 20 Oeste 43 Oeste 0 1001.8 0.3 47
2019-01-24 06:00:00 14.8 22 Oeste 39 Oeste 0 1001.4 -0.6 47
2019-01-24 05:00:00 15.1 20 Oeste 48 Oeste 0 1001.3 -0.9 46
2019-01-24 04:00:00 15.4 23 Oeste 53 Noroeste 0 1001.5 -0.3 45
2019-01-24 03:00:00 15.6 28 Oeste 56 Oeste 0 1002 -0.1 45
2019-01-24 02:00:00 15.8 30 Oeste 54 Oeste 0 1002.2 -0.5 44
2019-01-24 01:00:00 16 30 Oeste 53 Oeste 0 1001.8 -0.9 43
2019-01-24 00:00:00 16 25 Oeste 45 Oeste 0 1002.1 -0.8 43